sensor_id;sensor_type;location;lat;lon;timestamp;pressure;altitude;pressure_sealevel;temperature
78225;BMP280;67498;53.650;10.090;2023-08-12T00:01:01;101677.00;;;20.05
78225;BMP280;67498;53.650;10.090;2023-08-12T00:03:26;101674.09;;;20.03
78225;BMP280;67498;53.650;10.090;2023-08-12T00:05:52;101662.56;;;19.96
78225;BMP280;67498;53.650;10.090;2023-08-12T00:08:18;101666.72;;;19.97
78225;BMP280;67498;53.650;10.090;2023-08-12T00:10:43;101652.97;;;19.90
78225;BMP280;67498;53.650;10.090;2023-08-12T00:13:08;101658.56;;;19.92
78225;BMP280;67498;53.650;10.090;2023-08-12T00:15:34;101651.66;;;19.85
78225;BMP280;67498;53.650;10.090;2023-08-12T00:17:59;101660.47;;;19.91
78225;BMP280;67498;53.650;10.090;2023-08-12T00:20:24;101643.53;;;19.80
78225;BMP280;67498;53.650;10.090;2023-08-12T00:22:50;101670.81;;;19.89
78225;BMP280;67498;53.650;10.090;2023-08-12T00:25:15;101656.66;;;19.83
78225;BMP280;67498;53.650;10.090;2023-08-12T00:27:40;101661.81;;;19.87
78225;BMP280;67498;53.650;10.090;2023-08-12T00:30:06;101652.09;;;19.84
78225;BMP280;67498;53.650;10.090;2023-08-12T00:32:32;101658.28;;;19.81
78225;BMP280;67498;53.650;10.090;2023-08-12T00:34:57;101648.50;;;19.78
78225;BMP280;67498;53.650;10.090;2023-08-12T00:37:23;101651.63;;;19.76
78225;BMP280;67498;53.650;10.090;2023-08-12T00:39:48;101643.78;;;19.72
78225;BMP280;67498;53.650;10.090;2023-08-12T00:42:13;101643.09;;;19.72
78225;BMP280;67498;53.650;10.090;2023-08-12T00:44:39;101641.63;;;19.71
78225;BMP280;67498;53.650;10.090;2023-08-12T00:47:04;101638.19;;;19.70
78225;BMP280;67498;53.650;10.090;2023-08-12T00:49:31;101633.78;;;19.67
78225;BMP280;67498;53.650;10.090;2023-08-12T00:51:57;101629.97;;;19.68
78225;BMP280;67498;53.650;10.090;2023-08-12T00:54:24;101633.06;;;19.67
78225;BMP280;67498;53.650;10.090;2023-08-12T00:56:50;101629.81;;;19.63
78225;BMP280;67498;53.650;10.090;2023-08-12T00:59:16;101635.72;;;19.67
78225;BMP280;67498;53.650;10.090;2023-08-12T01:01:43;101638.78;;;19.65
78225;BMP280;67498;53.650;10.090;2023-08-12T01:04:09;101638.78;;;19.65
78225;BMP280;67498;53.650;10.090;2023-08-12T01:06:35;101619.47;;;19.56
78225;BMP280;67498;53.650;10.090;2023-08-12T01:09:01;101632.75;;;19.65
78225;BMP280;67498;53.650;10.090;2023-08-12T01:11:36;101621.38;;;19.55
78225;BMP280;67498;53.650;10.090;2023-08-12T01:14:15;101622.44;;;19.58
78225;BMP280;67498;53.650;10.090;2023-08-12T01:16:45;101629.81;;;19.63
78225;BMP280;67498;53.650;10.090;2023-08-12T01:19:28;101619.34;;;19.59
78225;BMP280;67498;53.650;10.090;2023-08-12T01:21:55;101619.03;;;19.57
78225;BMP280;67498;53.650;10.090;2023-08-12T01:24:21;101615.78;;;19.53
78225;BMP280;67498;53.650;10.090;2023-08-12T01:26:47;101616.81;;;19.56
78225;BMP280;67498;53.650;10.090;2023-08-12T01:29:12;101619.16;;;19.54
78225;BMP280;67498;53.650;10.090;2023-08-12T01:31:45;101603.13;;;19.48
78225;BMP280;67498;53.650;10.090;2023-08-12T01:34:42;101608.69;;;19.50
78225;BMP280;67498;53.650;10.090;2023-08-12T01:37:11;101608.09;;;19.46
78225;BMP280;67498;53.650;10.090;2023-08-12T01:39:38;101605.59;;;19.42
78225;BMP280;67498;53.650;10.090;2023-08-12T01:42:05;101614.69;;;19.41
78225;BMP280;67498;53.650;10.090;2023-08-12T01:44:31;101596.88;;;19.33
78225;BMP280;67498;53.650;10.090;2023-08-12T01:46:56;101608.78;;;19.37
78225;BMP280;67498;53.650;10.090;2023-08-12T01:49:21;101591.31;;;19.31
78225;BMP280;67498;53.650;10.090;2023-08-12T01:51:48;101604.84;;;19.33
78225;BMP280;67498;53.650;10.090;2023-08-12T01:54:13;101595.84;;;19.30
78225;BMP280;67498;53.650;10.090;2023-08-12T01:56:39;101597.63;;;19.33
78225;BMP280;67498;53.650;10.090;2023-08-12T01:59:04;101611.59;;;19.34
78225;BMP280;67498;53.650;10.090;2023-08-12T02:01:29;101593.34;;;19.27
78225;BMP280;67498;53.650;10.090;2023-08-12T02:03:55;101597.28;;;19.22
78225;BMP280;67498;53.650;10.090;2023-08-12T02:06:20;101596.56;;;19.21
78225;BMP280;67498;53.650;10.090;2023-08-12T02:08:45;101596.56;;;19.21
78225;BMP280;67498;53.650;10.090;2023-08-12T02:11:10;101582.09;;;19.13
78225;BMP280;67498;53.650;10.090;2023-08-12T02:13:36;101578.25;;;19.14
78225;BMP280;67498;53.650;10.090;2023-08-12T02:16:01;101593.13;;;19.12
78225;BMP280;67498;53.650;10.090;2023-08-12T02:18:26;101592.81;;;19.10
78225;BMP280;67498;53.650;10.090;2023-08-12T02:20:51;101578.38;;;19.02
78225;BMP280;67498;53.650;10.090;2023-08-12T02:23:17;101574.97;;;19.01
78225;BMP280;67498;53.650;10.090;2023-08-12T02:25:42;101566.97;;;18.92
78225;BMP280;67498;53.650;10.090;2023-08-12T02:28:07;101573.78;;;18.93
78225;BMP280;67498;53.650;10.090;2023-08-12T02:30:32;101576.97;;;18.88
78225;BMP280;67498;53.650;10.090;2023-08-12T02:32:58;101580.47;;;18.85
78225;BMP280;67498;53.650;10.090;2023-08-12T02:35:23;101578.69;;;18.82
78225;BMP280;67498;53.650;10.090;2023-08-12T02:37:48;101566.91;;;18.74
78225;BMP280;67498;53.650;10.090;2023-08-12T02:40:14;101572.31;;;18.70
78225;BMP280;67498;53.650;10.090;2023-08-12T02:42:39;101568.19;;;18.69
78225;BMP280;67498;53.650;10.090;2023-08-12T02:45:05;101576.00;;;18.73
78225;BMP280;67498;53.650;10.090;2023-08-12T02:47:30;101576.47;;;18.71
78225;BMP280;67498;53.650;10.090;2023-08-12T02:49:56;101578.03;;;18.68
78225;BMP280;67498;53.650;10.090;2023-08-12T02:52:21;101566.97;;;18.61
78225;BMP280;67498;53.650;10.090;2023-08-12T02:54:46;101571.19;;;18.58
78225;BMP280;67498;53.650;10.090;2023-08-12T02:57:12;101578.31;;;18.61
78225;BMP280;67498;53.650;10.090;2023-08-12T02:59:37;101576.50;;;18.58
78225;BMP280;67498;53.650;10.090;2023-08-12T03:02:02;101569.84;;;18.54
78225;BMP280;67498;53.650;10.090;2023-08-12T03:04:28;101566.00;;;18.45
78225;BMP280;67498;53.650;10.090;2023-08-12T03:06:54;101570.88;;;18.47
78225;BMP280;67498;53.650;10.090;2023-08-12T03:09:19;101579.94;;;18.46
78225;BMP280;67498;53.650;10.090;2023-08-12T03:11:45;101566.41;;;18.44
78225;BMP280;67498;53.650;10.090;2023-08-12T03:14:10;101568.22;;;18.47
78225;BMP280;67498;53.650;10.090;2023-08-12T03:16:35;101564.97;;;18.43
78225;BMP280;67498;53.650;10.090;2023-08-12T03:19:01;101562.31;;;18.43
78225;BMP280;67498;53.650;10.090;2023-08-12T03:21:26;101566.72;;;18.46
78225;BMP280;67498;53.650;10.090;2023-08-12T03:23:51;101568.63;;;18.45
78225;BMP280;67498;53.650;10.090;2023-08-12T03:26:17;101550.53;;;18.44
78225;BMP280;67498;53.650;10.090;2023-08-12T03:28:42;101553.63;;;18.42
78225;BMP280;67498;53.650;10.090;2023-08-12T03:31:07;101549.50;;;18.41
78225;BMP280;67498;53.650;10.090;2023-08-12T03:33:33;101551.72;;;18.43
78225;BMP280;67498;53.650;10.090;2023-08-12T03:35:59;101549.50;;;18.41
78225;BMP280;67498;53.650;10.090;2023-08-12T03:38:24;101542.84;;;18.37
78225;BMP280;67498;53.650;10.090;2023-08-12T03:40:50;101538.00;;;18.35
78225;BMP280;67498;53.650;10.090;2023-08-12T03:43:15;101529.78;;;18.33
78225;BMP280;67498;53.650;10.090;2023-08-12T03:45:41;101530.50;;;18.34
78225;BMP280;67498;53.650;10.090;2023-08-12T03:48:07;101535.91;;;18.30
78225;BMP280;67498;53.650;10.090;2023-08-12T03:50:36;101525.03;;;18.28
78225;BMP280;67498;53.650;10.090;2023-08-12T03:53:02;101522.63;;;18.21
78225;BMP280;67498;53.650;10.090;2023-08-12T03:55:30;101517.44;;;18.17
78225;BMP280;67498;53.650;10.090;2023-08-12T03:57:56;101527.69;;;18.15
78225;BMP280;67498;53.650;10.090;2023-08-12T04:00:22;101534.03;;;18.18
78225;BMP280;67498;53.650;10.090;2023-08-12T04:02:47;101537.88;;;18.17
78225;BMP280;67498;53.650;10.090;2023-08-12T04:05:12;101525.53;;;18.14
78225;BMP280;67498;53.650;10.090;2023-08-12T04:07:37;101522.56;;;18.12
78225;BMP280;67498;53.650;10.090;2023-08-12T04:10:03;101528.56;;;18.12
78225;BMP280;67498;53.650;10.090;2023-08-12T04:12:28;101524.25;;;18.06
78225;BMP280;67498;53.650;10.090;2023-08-12T04:14:53;101537.38;;;18.09
78225;BMP280;67498;53.650;10.090;2023-08-12T04:17:19;101547.22;;;18.09
78225;BMP280;67498;53.650;10.090;2023-08-12T04:19:44;101528.09;;;18.05
78225;BMP280;67498;53.650;10.090;2023-08-12T04:22:09;101523.53;;;18.05
78225;BMP280;67498;53.650;10.090;2023-08-12T04:24:34;101523.44;;;18.09
78225;BMP280;67498;53.650;10.090;2023-08-12T04:27:00;101518.66;;;18.04
78225;BMP280;67498;53.650;10.090;2023-08-12T04:29:25;101517.59;;;18.01
78225;BMP280;67498;53.650;10.090;2023-08-12T04:31:50;101508.22;;;18.00
78225;BMP280;67498;53.650;10.090;2023-08-12T04:34:18;101520.25;;;18.01
78225;BMP280;67498;53.650;10.090;2023-08-12T04:36:43;101518.38;;;18.02
78225;BMP280;67498;53.650;10.090;2023-08-12T04:39:08;101521.00;;;18.02
78225;BMP280;67498;53.650;10.090;2023-08-12T04:41:33;101527.22;;;18.08
78225;BMP280;67498;53.650;10.090;2023-08-12T04:43:59;101527.00;;;18.15
78225;BMP280;67498;53.650;10.090;2023-08-12T04:46:24;101527.00;;;18.15
78225;BMP280;67498;53.650;10.090;2023-08-12T04:48:49;101520.66;;;18.12
78225;BMP280;67498;53.650;10.090;2023-08-12T04:51:14;101525.06;;;18.15
78225;BMP280;67498;53.650;10.090;2023-08-12T04:53:40;101528.16;;;18.14
78225;BMP280;67498;53.650;10.090;2023-08-12T04:56:05;101523.47;;;18.18
78225;BMP280;67498;53.650;10.090;2023-08-12T04:58:30;101528.47;;;18.16
78225;BMP280;67498;53.650;10.090;2023-08-12T05:00:56;101528.75;;;18.18
78225;BMP280;67498;53.650;10.090;2023-08-12T05:03:22;101528.34;;;18.19
78225;BMP280;67498;53.650;10.090;2023-08-12T05:05:51;101528.66;;;18.22
78225;BMP280;67498;53.650;10.090;2023-08-12T05:08:17;101534.13;;;18.27
78225;BMP280;67498;53.650;10.090;2023-08-12T05:10:42;101529.72;;;18.24
78225;BMP280;67498;53.650;10.090;2023-08-12T05:13:07;101541.19;;;18.30
78225;BMP280;67498;53.650;10.090;2023-08-12T05:15:32;101527.06;;;18.24
78225;BMP280;67498;53.650;10.090;2023-08-12T05:17:58;101535.47;;;18.32
78225;BMP280;67498;53.650;10.090;2023-08-12T05:20:23;101521.50;;;18.31
78225;BMP280;67498;53.650;10.090;2023-08-12T05:22:48;101516.09;;;18.35
78225;BMP280;67498;53.650;10.090;2023-08-12T05:25:13;101525.09;;;18.37
78225;BMP280;67498;53.650;10.090;2023-08-12T05:27:39;101518.72;;;18.35
78225;BMP280;67498;53.650;10.090;2023-08-12T05:30:04;101525.28;;;18.43
78225;BMP280;67498;53.650;10.090;2023-08-12T05:32:30;101533.63;;;18.41
78225;BMP280;67498;53.650;10.090;2023-08-12T05:34:55;101530.56;;;18.43
78225;BMP280;67498;53.650;10.090;2023-08-12T05:37:20;101541.63;;;18.51
78225;BMP280;67498;53.650;10.090;2023-08-12T05:39:46;101542.34;;;18.51
78225;BMP280;67498;53.650;10.090;2023-08-12T05:42:11;101549.56;;;18.51
78225;BMP280;67498;53.650;10.090;2023-08-12T05:44:36;101537.22;;;18.48
78225;BMP280;67498;53.650;10.090;2023-08-12T05:47:02;101537.94;;;18.48
78225;BMP280;67498;53.650;10.090;2023-08-12T05:49:27;101540.72;;;18.44
78225;BMP280;67498;53.650;10.090;2023-08-12T05:51:52;101547.97;;;18.53
78225;BMP280;67498;53.650;10.090;2023-08-12T05:54:17;101544.28;;;18.51
78225;BMP280;67498;53.650;10.090;2023-08-12T05:56:43;101550.91;;;18.55
78225;BMP280;67498;53.650;10.090;2023-08-12T05:59:08;101559.91;;;18.58
78225;BMP280;67498;53.650;10.090;2023-08-12T06:01:33;101552.25;;;18.60
78225;BMP280;67498;53.650;10.090;2023-08-12T06:03:59;101536.34;;;18.51
78225;BMP280;67498;53.650;10.090;2023-08-12T06:06:24;101554.91;;;18.60
78225;BMP280;67498;53.650;10.090;2023-08-12T06:08:49;101558.63;;;18.62
78225;BMP280;67498;53.650;10.090;2023-08-12T06:11:14;101543.44;;;18.63
78225;BMP280;67498;53.650;10.090;2023-08-12T06:13:40;101551.72;;;18.65
78225;BMP280;67498;53.650;10.090;2023-08-12T06:16:05;101547.16;;;18.65
78225;BMP280;67498;53.650;10.090;2023-08-12T06:18:30;101548.66;;;18.66
78225;BMP280;67498;53.650;10.090;2023-08-12T06:20:55;101548.09;;;18.72
78225;BMP280;67498;53.650;10.090;2023-08-12T06:23:21;101558.22;;;18.73
78225;BMP280;67498;53.650;10.090;2023-08-12T06:25:46;101543.03;;;18.64
78225;BMP280;67498;53.650;10.090;2023-08-12T06:28:11;101551.44;;;18.72
78225;BMP280;67498;53.650;10.090;2023-08-12T06:30:36;101552.66;;;18.71
78225;BMP280;67498;53.650;10.090;2023-08-12T06:33:02;101544.72;;;18.71
78225;BMP280;67498;53.650;10.090;2023-08-12T06:35:27;101531.56;;;18.67
78225;BMP280;67498;53.650;10.090;2023-08-12T06:37:52;101542.06;;;18.71
78225;BMP280;67498;53.650;10.090;2023-08-12T06:40:18;101541.28;;;18.70
78225;BMP280;67498;53.650;10.090;2023-08-12T06:42:43;101533.19;;;18.65
78225;BMP280;67498;53.650;10.090;2023-08-12T06:45:09;101533.19;;;18.65
78225;BMP280;67498;53.650;10.090;2023-08-12T06:47:34;101547.34;;;18.71
78225;BMP280;67498;53.650;10.090;2023-08-12T06:49:59;101532.78;;;18.66
78225;BMP280;67498;53.650;10.090;2023-08-12T06:52:25;101528.22;;;18.67
78225;BMP280;67498;53.650;10.090;2023-08-12T06:54:50;101525.13;;;18.68
78225;BMP280;67498;53.650;10.090;2023-08-12T06:57:15;101520.13;;;18.70
78225;BMP280;67498;53.650;10.090;2023-08-12T06:59:41;101515.03;;;18.76
78225;BMP280;67498;53.650;10.090;2023-08-12T07:02:06;101512.53;;;18.82
78225;BMP280;67498;53.650;10.090;2023-08-12T07:04:32;101497.94;;;18.77
78225;BMP280;67498;53.650;10.090;2023-08-12T07:06:57;101493.28;;;18.81
78225;BMP280;67498;53.650;10.090;2023-08-12T07:09:22;101486.38;;;18.84
78225;BMP280;67498;53.650;10.090;2023-08-12T07:11:47;101488.13;;;18.87
78225;BMP280;67498;53.650;10.090;2023-08-12T07:14:13;101491.97;;;18.86
78225;BMP280;67498;53.650;10.090;2023-08-12T07:16:38;101501.28;;;18.90
78225;BMP280;67498;53.650;10.090;2023-08-12T07:19:03;101492.88;;;18.92
78225;BMP280;67498;53.650;10.090;2023-08-12T07:21:29;101497.03;;;19.02
78225;BMP280;67498;53.650;10.090;2023-08-12T07:23:54;101490.44;;;19.07
78225;BMP280;67498;53.650;10.090;2023-08-12T07:26:19;101484.13;;;19.04
78225;BMP280;67498;53.650;10.090;2023-08-12T07:28:44;101488.13;;;19.09
78225;BMP280;67498;53.650;10.090;2023-08-12T07:31:10;101493.41;;;19.18
78225;BMP280;67498;53.650;10.090;2023-08-12T07:33:35;101481.50;;;19.22
78225;BMP280;67498;53.650;10.090;2023-08-12T07:36:02;101475.59;;;19.28
78225;BMP280;67498;53.650;10.090;2023-08-12T07:38:27;101483.00;;;19.33
78225;BMP280;67498;53.650;10.090;2023-08-12T07:40:53;101484.16;;;19.41
78225;BMP280;67498;53.650;10.090;2023-08-12T07:43:18;101482.84;;;19.45
78225;BMP280;67498;53.650;10.090;2023-08-12T07:45:43;101475.06;;;19.51
78225;BMP280;67498;53.650;10.090;2023-08-12T07:48:09;101485.06;;;19.65
78225;BMP280;67498;53.650;10.090;2023-08-12T07:50:34;101476.09;;;19.72
78225;BMP280;67498;53.650;10.090;2023-08-12T07:52:59;101484.50;;;19.89
78225;BMP280;67498;53.650;10.090;2023-08-12T07:55:25;101491.41;;;20.05
78225;BMP280;67498;53.650;10.090;2023-08-12T07:57:50;101473.69;;;20.11
78225;BMP280;67498;53.650;10.090;2023-08-12T08:00:16;101476.00;;;20.27
78225;BMP280;67498;53.650;10.090;2023-08-12T08:02:41;101471.69;;;20.39
78225;BMP280;67498;53.650;10.090;2023-08-12T08:05:07;101473.41;;;20.51
78225;BMP280;67498;53.650;10.090;2023-08-12T08:07:32;101457.19;;;20.58
78225;BMP280;67498;53.650;10.090;2023-08-12T08:09:58;101457.09;;;20.76
78225;BMP280;67498;53.650;10.090;2023-08-12T08:12:23;101474.72;;;20.89
78225;BMP280;67498;53.650;10.090;2023-08-12T08:14:48;101458.97;;;20.85
78225;BMP280;67498;53.650;10.090;2023-08-12T08:17:14;101467.41;;;20.84
78225;BMP280;67498;53.650;10.090;2023-08-12T08:19:39;101479.59;;;20.90
78225;BMP280;67498;53.650;10.090;2023-08-12T08:22:04;101475.63;;;20.86
78225;BMP280;67498;53.650;10.090;2023-08-12T08:24:30;101461.75;;;20.91
78225;BMP280;67498;53.650;10.090;2023-08-12T08:26:55;101463.59;;;20.99
78225;BMP280;67498;53.650;10.090;2023-08-12T08:29:21;101477.22;;;21.16
78225;BMP280;67498;53.650;10.090;2023-08-12T08:31:46;101469.19;;;21.25
78225;BMP280;67498;53.650;10.090;2023-08-12T08:34:11;101465.28;;;21.36
78225;BMP280;67498;53.650;10.090;2023-08-12T08:36:37;101469.03;;;21.44
78225;BMP280;67498;53.650;10.090;2023-08-12T08:39:02;101469.47;;;21.42
78225;BMP280;67498;53.650;10.090;2023-08-12T08:41:30;101466.44;;;21.34
78225;BMP280;67498;53.650;10.090;2023-08-12T08:44:01;101468.22;;;21.38
78225;BMP280;67498;53.650;10.090;2023-08-12T08:46:27;101469.09;;;21.34
78225;BMP280;67498;53.650;10.090;2023-08-12T08:48:54;101467.47;;;21.37
78225;BMP280;67498;53.650;10.090;2023-08-12T08:51:20;101476.75;;;21.42
78225;BMP280;67498;53.650;10.090;2023-08-12T08:53:46;101469.47;;;21.42
78225;BMP280;67498;53.650;10.090;2023-08-12T08:56:12;101476.66;;;21.51
78225;BMP280;67498;53.650;10.090;2023-08-12T08:58:38;101477.50;;;21.57
78225;BMP280;67498;53.650;10.090;2023-08-12T09:01:05;101467.81;;;21.69
78225;BMP280;67498;53.650;10.090;2023-08-12T09:03:32;101462.38;;;21.78
78225;BMP280;67498;53.650;10.090;2023-08-12T09:05:58;101472.66;;;21.85
78225;BMP280;67498;53.650;10.090;2023-08-12T09:08:25;101465.44;;;21.85
78225;BMP280;67498;53.650;10.090;2023-08-12T09:10:51;101465.41;;;22.00
78225;BMP280;67498;53.650;10.090;2023-08-12T09:13:16;101462.94;;;22.11
78225;BMP280;67498;53.650;10.090;2023-08-12T09:15:43;101455.97;;;22.14
78225;BMP280;67498;53.650;10.090;2023-08-12T09:18:09;101458.69;;;22.20
78225;BMP280;67498;53.650;10.090;2023-08-12T09:20:34;101456.56;;;22.24
78225;BMP280;67498;53.650;10.090;2023-08-12T09:23:01;101452.59;;;22.34
78225;BMP280;67498;53.650;10.090;2023-08-12T09:25:28;101452.28;;;22.47
78225;BMP280;67498;53.650;10.090;2023-08-12T09:27:55;101457.03;;;22.57
78225;BMP280;67498;53.650;10.090;2023-08-12T09:30:21;101455.38;;;22.60
78225;BMP280;67498;53.650;10.090;2023-08-12T09:33:04;101449.31;;;22.59
78225;BMP280;67498;53.650;10.090;2023-08-12T09:35:40;101451.69;;;22.57
78225;BMP280;67498;53.650;10.090;2023-08-12T09:38:07;101448.22;;;22.51
78225;BMP280;67498;53.650;10.090;2023-08-12T09:40:34;101443.91;;;22.54
78225;BMP280;67498;53.650;10.090;2023-08-12T09:43:00;101441.53;;;22.56
78225;BMP280;67498;53.650;10.090;2023-08-12T09:45:25;101439.13;;;22.58
78225;BMP280;67498;53.650;10.090;2023-08-12T09:47:52;101451.78;;;22.63
78225;BMP280;67498;53.650;10.090;2023-08-12T09:50:21;101450.06;;;22.60
78225;BMP280;67498;53.650;10.090;2023-08-12T09:52:46;101455.31;;;22.54
78225;BMP280;67498;53.650;10.090;2023-08-12T09:55:16;101449.16;;;22.48
78225;BMP280;67498;53.650;10.090;2023-08-12T09:57:42;101451.63;;;22.52
78225;BMP280;67498;53.650;10.090;2023-08-12T10:00:09;101454.75;;;22.50
78225;BMP280;67498;53.650;10.090;2023-08-12T10:02:41;101449.63;;;22.47
78225;BMP280;67498;53.650;10.090;2023-08-12T10:05:09;101448.88;;;22.46
78225;BMP280;67498;53.650;10.090;2023-08-12T10:07:36;101449.56;;;22.41
78225;BMP280;67498;53.650;10.090;2023-08-12T10:10:01;101451.28;;;22.44
78225;BMP280;67498;53.650;10.090;2023-08-12T10:12:27;101442.13;;;22.45
78225;BMP280;67498;53.650;10.090;2023-08-12T10:14:53;101446.50;;;22.48
78225;BMP280;67498;53.650;10.090;2023-08-12T10:17:19;101441.91;;;22.49
78225;BMP280;67498;53.650;10.090;2023-08-12T10:19:45;101441.38;;;22.45
78225;BMP280;67498;53.650;10.090;2023-08-12T10:22:11;101434.31;;;22.42
78225;BMP280;67498;53.650;10.090;2023-08-12T10:24:38;101436.69;;;22.39
78225;BMP280;67498;53.650;10.090;2023-08-12T10:27:04;101441.03;;;22.37
78225;BMP280;67498;53.650;10.090;2023-08-12T10:29:30;101427.09;;;22.27
78225;BMP280;67498;53.650;10.090;2023-08-12T10:31:56;101436.78;;;22.30
78225;BMP280;67498;53.650;10.090;2023-08-12T10:34:23;101427.75;;;22.22
78225;BMP280;67498;53.650;10.090;2023-08-12T10:37:01;101430.69;;;22.24
78225;BMP280;67498;53.650;10.090;2023-08-12T10:39:27;101420.88;;;22.16
78225;BMP280;67498;53.650;10.090;2023-08-12T10:41:56;101422.63;;;22.19
78225;BMP280;67498;53.650;10.090;2023-08-12T10:44:23;101424.38;;;22.22
78225;BMP280;67498;53.650;10.090;2023-08-12T10:46:52;101430.78;;;22.30
78225;BMP280;67498;53.650;10.090;2023-08-12T10:49:21;101424.00;;;22.29
78225;BMP280;67498;53.650;10.090;2023-08-12T10:51:53;101426.53;;;22.38
78225;BMP280;67498;53.650;10.090;2023-08-12T10:54:27;101423.38;;;22.39
78225;BMP280;67498;53.650;10.090;2023-08-12T11:02:28;101394.31;;;22.36
78225;BMP280;67498;53.650;10.090;2023-08-12T11:05:03;101400.53;;;22.48
78225;BMP280;67498;53.650;10.090;2023-08-12T11:10:12;101398.56;;;22.68
78225;BMP280;67498;53.650;10.090;2023-08-12T11:12:39;101391.38;;;22.75
78225;BMP280;67498;53.650;10.090;2023-08-12T11:15:05;101391.44;;;22.80
78225;BMP280;67498;53.650;10.090;2023-08-12T11:17:34;101388.38;;;22.87
78225;BMP280;67498;53.650;10.090;2023-08-12T11:20:00;101390.38;;;22.92
78225;BMP280;67498;53.650;10.090;2023-08-12T11:22:26;101402.63;;;23.05
78225;BMP280;67498;53.650;10.090;2023-08-12T11:24:52;101392.00;;;23.10
78225;BMP280;67498;53.650;10.090;2023-08-12T11:27:18;101378.88;;;23.07
78225;BMP280;67498;53.650;10.090;2023-08-12T11:29:43;101387.25;;;23.20
78225;BMP280;67498;53.650;10.090;2023-08-12T11:32:09;101391.69;;;23.29
78225;BMP280;67498;53.650;10.090;2023-08-12T11:34:35;101384.69;;;23.31
78225;BMP280;67498;53.650;10.090;2023-08-12T11:37:00;101376.88;;;23.28
78225;BMP280;67498;53.650;10.090;2023-08-12T11:39:27;101385.78;;;23.19
78225;BMP280;67498;53.650;10.090;2023-08-12T11:41:53;101390.03;;;23.11
78225;BMP280;67498;53.650;10.090;2023-08-12T11:44:22;101380.22;;;22.97
78225;BMP280;67498;53.650;10.090;2023-08-12T11:46:47;101380.13;;;22.85
78225;BMP280;67498;53.650;10.090;2023-08-12T11:49:13;101384.59;;;22.74
78225;BMP280;67498;53.650;10.090;2023-08-12T11:51:40;101378.59;;;22.58
78225;BMP280;67498;53.650;10.090;2023-08-12T11:54:06;101381.94;;;22.53
78225;BMP280;67498;53.650;10.090;2023-08-12T11:56:31;101385.00;;;22.46
78225;BMP280;67498;53.650;10.090;2023-08-12T11:58:57;101380.81;;;22.39
78225;BMP280;67498;53.650;10.090;2023-08-12T12:01:22;101382.19;;;22.35
78225;BMP280;67498;53.650;10.090;2023-08-12T12:03:52;101372.22;;;22.30
78225;BMP280;67498;53.650;10.090;2023-08-12T12:06:17;101377.72;;;22.26
78225;BMP280;67498;53.650;10.090;2023-08-12T12:08:44;101375.47;;;22.19
78225;BMP280;67498;53.650;10.090;2023-08-12T12:11:09;101382.47;;;22.17
78225;BMP280;67498;53.650;10.090;2023-08-12T12:13:35;101379.44;;;22.09
78225;BMP280;67498;53.650;10.090;2023-08-12T12:16:00;101369.34;;;21.98
78225;BMP280;67498;53.650;10.090;2023-08-12T12:18:26;101359.19;;;21.97
78225;BMP280;67498;53.650;10.090;2023-08-12T12:20:58;101354.25;;;21.90
78225;BMP280;67498;53.650;10.090;2023-08-12T12:23:28;101339.88;;;21.81
78225;BMP280;67498;53.650;10.090;2023-08-12T12:26:01;101338.50;;;21.86
78225;BMP280;67498;53.650;10.090;2023-08-12T12:28:27;101329.03;;;21.85
78225;BMP280;67498;53.650;10.090;2023-08-12T12:30:52;101326.31;;;21.79
78225;BMP280;67498;53.650;10.090;2023-08-12T12:33:17;101310.28;;;21.74
78225;BMP280;67498;53.650;10.090;2023-08-12T12:35:43;101299.09;;;21.70
78225;BMP280;67498;53.650;10.090;2023-08-12T12:38:09;101288.66;;;21.66
78225;BMP280;67498;53.650;10.090;2023-08-12T12:40:34;101293.06;;;21.69
78225;BMP280;67498;53.650;10.090;2023-08-12T12:42:59;101304.69;;;21.72
78225;BMP280;67498;53.650;10.090;2023-08-12T12:45:24;101311.56;;;21.78
78225;BMP280;67498;53.650;10.090;2023-08-12T12:47:50;101304.09;;;21.82
78225;BMP280;67498;53.650;10.090;2023-08-12T12:50:15;101311.72;;;21.90
78225;BMP280;67498;53.650;10.090;2023-08-12T12:52:42;101312.25;;;21.94
78225;BMP280;67498;53.650;10.090;2023-08-12T12:55:07;101303.81;;;21.95
78225;BMP280;67498;53.650;10.090;2023-08-12T12:57:33;101299.50;;;21.98
78225;BMP280;67498;53.650;10.090;2023-08-12T12:59:58;101307.09;;;22.05
78225;BMP280;67498;53.650;10.090;2023-08-12T13:02:24;101297.81;;;22.00
78225;BMP280;67498;53.650;10.090;2023-08-12T13:04:49;101285.88;;;21.90
78225;BMP280;67498;53.650;10.090;2023-08-12T13:07:15;101281.44;;;21.87
78225;BMP280;67498;53.650;10.090;2023-08-12T13:09:40;101287.78;;;21.90
78225;BMP280;67498;53.650;10.090;2023-08-12T13:12:05;101292.63;;;21.91
78225;BMP280;67498;53.650;10.090;2023-08-12T13:14:31;101289.63;;;21.83
78225;BMP280;67498;53.650;10.090;2023-08-12T13:16:56;101298.78;;;21.82
78225;BMP280;67498;53.650;10.090;2023-08-12T13:19:21;101289.28;;;21.76
78225;BMP280;67498;53.650;10.090;2023-08-12T13:21:47;101287.78;;;21.75
78225;BMP280;67498;53.650;10.090;2023-08-12T13:24:12;101285.09;;;21.69
78225;BMP280;67498;53.650;10.090;2023-08-12T13:26:37;101282.31;;;21.64
78225;BMP280;67498;53.650;10.090;2023-08-12T13:29:03;101292.56;;;21.71
78225;BMP280;67498;53.650;10.090;2023-08-12T13:31:28;101290.59;;;21.66
78225;BMP280;67498;53.650;10.090;2023-08-12T13:33:54;101296.88;;;21.68
78225;BMP280;67498;53.650;10.090;2023-08-12T13:36:19;101293.44;;;21.62
78225;BMP280;67498;53.650;10.090;2023-08-12T13:38:44;101290.59;;;21.66
78225;BMP280;67498;53.650;10.090;2023-08-12T13:41:09;101293.50;;;21.68
78225;BMP280;67498;53.650;10.090;2023-08-12T13:43:35;101290.84;;;21.68
78225;BMP280;67498;53.650;10.090;2023-08-12T13:46:00;101288.19;;;21.68